sensor_id;sensor_type;location;lat;lon;timestamp;P1;durP1;ratioP1;P2;durP2;ratioP2
36715;SDS011;22699;51.034;3.730;2023-07-13T00:00:49;8.50;;;1.80;;
36715;SDS011;22699;51.034;3.730;2023-07-13T00:03:16;12.65;;;3.20;;
36715;SDS011;22699;51.034;3.730;2023-07-13T00:05:43;10.40;;;2.25;;
36715;SDS011;22699;51.034;3.730;2023-07-13T00:08:09;10.98;;;3.03;;
36715;SDS011;22699;51.034;3.730;2023-07-13T00:10:40;9.82;;;2.33;;
36715;SDS011;22699;51.034;3.730;2023-07-13T00:13:06;13.82;;;3.00;;
36715;SDS011;22699;51.034;3.730;2023-07-13T00:15:34;10.57;;;2.28;;
36715;SDS011;22699;51.034;3.730;2023-07-13T00:18:00;10.27;;;2.63;;
36715;SDS011;22699;51.034;3.730;2023-07-13T00:20:26;9.13;;;2.63;;
36715;SDS011;22699;51.034;3.730;2023-07-13T00:22:53;14.90;;;3.45;;
36715;SDS011;22699;51.034;3.730;2023-07-13T00:25:19;8.70;;;3.10;;
36715;SDS011;22699;51.034;3.730;2023-07-13T00:27:46;8.27;;;2.67;;
36715;SDS011;22699;51.034;3.730;2023-07-13T00:30:16;12.38;;;3.28;;
36715;SDS011;22699;51.034;3.730;2023-07-13T00:32:41;11.32;;;3.42;;
36715;SDS011;22699;51.034;3.730;2023-07-13T00:35:07;8.98;;;3.10;;
36715;SDS011;22699;51.034;3.730;2023-07-13T00:37:35;7.75;;;2.60;;
36715;SDS011;22699;51.034;3.730;2023-07-13T00:40:06;9.15;;;2.42;;
36715;SDS011;22699;51.034;3.730;2023-07-13T00:42:36;12.55;;;2.95;;
36715;SDS011;22699;51.034;3.730;2023-07-13T00:47:37;14.68;;;3.30;;
36715;SDS011;22699;51.034;3.730;2023-07-13T00:50:08;13.07;;;3.05;;
36715;SDS011;22699;51.034;3.730;2023-07-13T00:55:47;8.40;;;3.08;;
36715;SDS011;22699;51.034;3.730;2023-07-13T00:58:15;9.88;;;2.78;;
36715;SDS011;22699;51.034;3.730;2023-07-13T01:00:45;15.35;;;2.72;;
36715;SDS011;22699;51.034;3.730;2023-07-13T01:03:15;14.15;;;3.40;;
36715;SDS011;22699;51.034;3.730;2023-07-13T01:05:41;14.77;;;3.97;;
36715;SDS011;22699;51.034;3.730;2023-07-13T01:08:07;15.48;;;3.40;;
36715;SDS011;22699;51.034;3.730;2023-07-13T01:10:33;12.70;;;3.45;;
36715;SDS011;22699;51.034;3.730;2023-07-13T01:13:04;9.90;;;2.92;;
36715;SDS011;22699;51.034;3.730;2023-07-13T01:15:45;17.90;;;4.43;;
36715;SDS011;22699;51.034;3.730;2023-07-13T01:18:13;18.13;;;3.75;;
36715;SDS011;22699;51.034;3.730;2023-07-13T01:20:50;10.65;;;2.83;;
36715;SDS011;22699;51.034;3.730;2023-07-13T01:23:18;12.68;;;3.60;;
36715;SDS011;22699;51.034;3.730;2023-07-13T01:25:44;12.52;;;3.65;;
36715;SDS011;22699;51.034;3.730;2023-07-13T01:28:13;19.20;;;4.05;;
36715;SDS011;22699;51.034;3.730;2023-07-13T01:30:48;11.65;;;3.45;;
36715;SDS011;22699;51.034;3.730;2023-07-13T01:36:08;17.70;;;4.25;;
36715;SDS011;22699;51.034;3.730;2023-07-13T01:38:39;16.70;;;3.50;;
36715;SDS011;22699;51.034;3.730;2023-07-13T01:41:12;17.95;;;4.45;;
36715;SDS011;22699;51.034;3.730;2023-07-13T01:46:42;14.73;;;3.60;;
36715;SDS011;22699;51.034;3.730;2023-07-13T01:51:40;13.85;;;3.60;;
36715;SDS011;22699;51.034;3.730;2023-07-13T01:54:16;14.60;;;3.38;;
36715;SDS011;22699;51.034;3.730;2023-07-13T01:56:53;14.23;;;3.72;;
36715;SDS011;22699;51.034;3.730;2023-07-13T02:02:23;9.20;;;3.35;;
36715;SDS011;22699;51.034;3.730;2023-07-13T02:04:49;17.63;;;4.72;;
36715;SDS011;22699;51.034;3.730;2023-07-13T02:07:16;19.45;;;3.70;;
36715;SDS011;22699;51.034;3.730;2023-07-13T02:09:41;14.80;;;4.25;;
36715;SDS011;22699;51.034;3.730;2023-07-13T02:12:08;19.17;;;4.15;;
36715;SDS011;22699;51.034;3.730;2023-07-13T02:14:34;10.73;;;3.30;;
36715;SDS011;22699;51.034;3.730;2023-07-13T02:17:00;16.75;;;5.15;;
36715;SDS011;22699;51.034;3.730;2023-07-13T02:19:26;14.68;;;3.65;;
36715;SDS011;22699;51.034;3.730;2023-07-13T02:21:51;15.25;;;4.28;;
36715;SDS011;22699;51.034;3.730;2023-07-13T02:24:17;14.35;;;4.13;;
36715;SDS011;22699;51.034;3.730;2023-07-13T02:26:44;19.33;;;4.22;;
36715;SDS011;22699;51.034;3.730;2023-07-13T02:29:10;14.77;;;4.38;;
36715;SDS011;22699;51.034;3.730;2023-07-13T02:31:36;12.68;;;3.33;;
36715;SDS011;22699;51.034;3.730;2023-07-13T02:34:02;16.13;;;4.22;;
36715;SDS011;22699;51.034;3.730;2023-07-13T02:36:28;15.07;;;4.95;;
36715;SDS011;22699;51.034;3.730;2023-07-13T02:38:54;12.10;;;3.67;;
36715;SDS011;22699;51.034;3.730;2023-07-13T02:41:19;16.75;;;4.00;;
36715;SDS011;22699;51.034;3.730;2023-07-13T02:43:45;13.00;;;4.20;;
36715;SDS011;22699;51.034;3.730;2023-07-13T02:46:11;19.67;;;4.75;;
36715;SDS011;22699;51.034;3.730;2023-07-13T02:48:37;14.23;;;4.60;;
36715;SDS011;22699;51.034;3.730;2023-07-13T02:51:03;16.80;;;4.32;;
36715;SDS011;22699;51.034;3.730;2023-07-13T02:53:29;13.30;;;3.95;;
36715;SDS011;22699;51.034;3.730;2023-07-13T02:55:55;15.10;;;4.53;;
36715;SDS011;22699;51.034;3.730;2023-07-13T02:58:21;15.77;;;4.28;;
36715;SDS011;22699;51.034;3.730;2023-07-13T03:00:47;20.55;;;4.53;;
36715;SDS011;22699;51.034;3.730;2023-07-13T03:03:15;17.10;;;4.68;;
36715;SDS011;22699;51.034;3.730;2023-07-13T03:05:41;14.05;;;3.88;;
36715;SDS011;22699;51.034;3.730;2023-07-13T03:08:09;17.40;;;4.38;;
36715;SDS011;22699;51.034;3.730;2023-07-13T03:10:36;17.02;;;4.68;;
36715;SDS011;22699;51.034;3.730;2023-07-13T03:13:02;16.55;;;4.47;;
36715;SDS011;22699;51.034;3.730;2023-07-13T03:15:34;15.13;;;4.57;;
36715;SDS011;22699;51.034;3.730;2023-07-13T03:17:59;19.95;;;5.18;;
36715;SDS011;22699;51.034;3.730;2023-07-13T03:20:25;21.98;;;5.53;;
36715;SDS011;22699;51.034;3.730;2023-07-13T03:22:51;20.48;;;4.72;;
36715;SDS011;22699;51.034;3.730;2023-07-13T03:25:16;17.60;;;5.25;;
36715;SDS011;22699;51.034;3.730;2023-07-13T03:27:43;17.88;;;4.38;;
36715;SDS011;22699;51.034;3.730;2023-07-13T03:30:09;13.85;;;4.20;;
36715;SDS011;22699;51.034;3.730;2023-07-13T03:32:35;16.73;;;4.70;;
36715;SDS011;22699;51.034;3.730;2023-07-13T03:35:01;17.00;;;4.75;;
36715;SDS011;22699;51.034;3.730;2023-07-13T03:37:26;20.60;;;4.50;;
36715;SDS011;22699;51.034;3.730;2023-07-13T03:39:55;13.90;;;5.32;;
36715;SDS011;22699;51.034;3.730;2023-07-13T03:42:21;16.95;;;3.90;;
36715;SDS011;22699;51.034;3.730;2023-07-13T03:44:46;11.13;;;3.58;;
36715;SDS011;22699;51.034;3.730;2023-07-13T03:47:17;14.95;;;4.10;;
36715;SDS011;22699;51.034;3.730;2023-07-13T03:49:43;11.35;;;3.75;;
36715;SDS011;22699;51.034;3.730;2023-07-13T03:52:09;19.73;;;4.85;;
36715;SDS011;22699;51.034;3.730;2023-07-13T03:54:35;14.65;;;4.57;;
36715;SDS011;22699;51.034;3.730;2023-07-13T03:57:02;20.70;;;4.40;;
36715;SDS011;22699;51.034;3.730;2023-07-13T03:59:28;18.90;;;4.50;;
36715;SDS011;22699;51.034;3.730;2023-07-13T04:01:54;17.13;;;4.55;;
36715;SDS011;22699;51.034;3.730;2023-07-13T04:04:20;18.05;;;4.57;;
36715;SDS011;22699;51.034;3.730;2023-07-13T04:06:48;17.75;;;4.63;;
36715;SDS011;22699;51.034;3.730;2023-07-13T04:09:13;11.70;;;3.95;;
36715;SDS011;22699;51.034;3.730;2023-07-13T04:11:39;16.60;;;3.85;;
36715;SDS011;22699;51.034;3.730;2023-07-13T04:14:08;13.07;;;3.90;;
36715;SDS011;22699;51.034;3.730;2023-07-13T04:16:34;14.50;;;4.30;;
36715;SDS011;22699;51.034;3.730;2023-07-13T04:18:59;15.68;;;3.67;;
36715;SDS011;22699;51.034;3.730;2023-07-13T04:21:26;19.88;;;4.80;;
36715;SDS011;22699;51.034;3.730;2023-07-13T04:23:53;19.17;;;4.18;;
36715;SDS011;22699;51.034;3.730;2023-07-13T04:26:22;16.88;;;3.42;;
36715;SDS011;22699;51.034;3.730;2023-07-13T04:28:54;15.33;;;3.67;;
36715;SDS011;22699;51.034;3.730;2023-07-13T04:31:20;17.10;;;5.82;;
36715;SDS011;22699;51.034;3.730;2023-07-13T04:33:46;14.02;;;3.97;;
36715;SDS011;22699;51.034;3.730;2023-07-13T04:36:14;14.18;;;4.30;;
36715;SDS011;22699;51.034;3.730;2023-07-13T04:38:40;19.55;;;4.32;;
36715;SDS011;22699;51.034;3.730;2023-07-13T04:41:13;18.88;;;4.00;;
36715;SDS011;22699;51.034;3.730;2023-07-13T04:43:43;16.08;;;3.88;;
36715;SDS011;22699;51.034;3.730;2023-07-13T04:46:15;14.40;;;3.53;;
36715;SDS011;22699;51.034;3.730;2023-07-13T04:48:54;14.15;;;3.78;;
36715;SDS011;22699;51.034;3.730;2023-07-13T04:51:19;17.13;;;4.50;;
36715;SDS011;22699;51.034;3.730;2023-07-13T04:53:46;15.35;;;3.72;;
36715;SDS011;22699;51.034;3.730;2023-07-13T04:56:11;12.77;;;3.90;;
36715;SDS011;22699;51.034;3.730;2023-07-13T04:58:37;18.33;;;3.78;;
36715;SDS011;22699;51.034;3.730;2023-07-13T05:01:05;17.48;;;4.30;;
36715;SDS011;22699;51.034;3.730;2023-07-13T05:03:31;17.70;;;4.60;;
36715;SDS011;22699;51.034;3.730;2023-07-13T05:05:58;16.73;;;3.88;;
36715;SDS011;22699;51.034;3.730;2023-07-13T05:08:28;18.27;;;4.57;;
36715;SDS011;22699;51.034;3.730;2023-07-13T05:10:54;17.55;;;3.60;;
36715;SDS011;22699;51.034;3.730;2023-07-13T05:13:19;11.95;;;4.32;;
36715;SDS011;22699;51.034;3.730;2023-07-13T05:15:56;22.27;;;4.82;;
36715;SDS011;22699;51.034;3.730;2023-07-13T05:18:23;17.67;;;4.18;;
36715;SDS011;22699;51.034;3.730;2023-07-13T05:20:56;21.92;;;4.72;;
36715;SDS011;22699;51.034;3.730;2023-07-13T05:23:31;19.55;;;4.85;;
36715;SDS011;22699;51.034;3.730;2023-07-13T05:25:57;15.55;;;3.90;;
36715;SDS011;22699;51.034;3.730;2023-07-13T05:28:24;26.17;;;7.18;;
36715;SDS011;22699;51.034;3.730;2023-07-13T05:30:52;15.10;;;4.13;;
36715;SDS011;22699;51.034;3.730;2023-07-13T05:33:20;13.68;;;3.75;;
36715;SDS011;22699;51.034;3.730;2023-07-13T05:35:49;14.65;;;4.13;;
36715;SDS011;22699;51.034;3.730;2023-07-13T05:40:49;14.10;;;3.42;;
36715;SDS011;22699;51.034;3.730;2023-07-13T05:43:37;12.10;;;3.65;;
36715;SDS011;22699;51.034;3.730;2023-07-13T05:46:04;13.43;;;4.15;;
36715;SDS011;22699;51.034;3.730;2023-07-13T05:48:31;13.32;;;5.28;;
36715;SDS011;22699;51.034;3.730;2023-07-13T05:50:56;15.43;;;3.72;;
36715;SDS011;22699;51.034;3.730;2023-07-13T05:53:36;15.18;;;4.38;;
36715;SDS011;22699;51.034;3.730;2023-07-13T05:56:04;15.82;;;4.00;;
36715;SDS011;22699;51.034;3.730;2023-07-13T05:58:31;11.50;;;3.70;;
36715;SDS011;22699;51.034;3.730;2023-07-13T06:01:01;17.85;;;4.13;;
36715;SDS011;22699;51.034;3.730;2023-07-13T06:03:32;16.13;;;3.35;;
36715;SDS011;22699;51.034;3.730;2023-07-13T06:05:58;19.42;;;4.32;;
36715;SDS011;22699;51.034;3.730;2023-07-13T06:08:27;12.18;;;3.63;;
36715;SDS011;22699;51.034;3.730;2023-07-13T06:10:53;16.92;;;4.47;;
36715;SDS011;22699;51.034;3.730;2023-07-13T06:13:19;17.58;;;4.57;;
36715;SDS011;22699;51.034;3.730;2023-07-13T06:15:51;14.88;;;3.53;;
36715;SDS011;22699;51.034;3.730;2023-07-13T06:18:17;17.60;;;4.93;;
36715;SDS011;22699;51.034;3.730;2023-07-13T06:20:42;12.75;;;3.30;;
36715;SDS011;22699;51.034;3.730;2023-07-13T06:23:09;20.98;;;4.18;;
36715;SDS011;22699;51.034;3.730;2023-07-13T06:25:34;14.57;;;4.22;;
36715;SDS011;22699;51.034;3.730;2023-07-13T06:28:00;12.60;;;4.03;;
36715;SDS011;22699;51.034;3.730;2023-07-13T06:30:26;17.38;;;4.45;;
36715;SDS011;22699;51.034;3.730;2023-07-13T06:32:52;16.48;;;4.55;;
36715;SDS011;22699;51.034;3.730;2023-07-13T06:35:18;17.77;;;3.53;;
36715;SDS011;22699;51.034;3.730;2023-07-13T06:37:45;14.05;;;3.78;;
36715;SDS011;22699;51.034;3.730;2023-07-13T06:40:12;16.42;;;4.22;;
36715;SDS011;22699;51.034;3.730;2023-07-13T06:42:38;13.55;;;4.32;;
36715;SDS011;22699;51.034;3.730;2023-07-13T06:45:03;18.92;;;3.95;;
36715;SDS011;22699;51.034;3.730;2023-07-13T06:47:30;13.25;;;3.78;;
36715;SDS011;22699;51.034;3.730;2023-07-13T06:49:55;16.75;;;4.88;;
36715;SDS011;22699;51.034;3.730;2023-07-13T06:52:21;13.82;;;3.88;;
36715;SDS011;22699;51.034;3.730;2023-07-13T06:54:47;18.55;;;4.18;;
36715;SDS011;22699;51.034;3.730;2023-07-13T06:57:13;14.52;;;3.88;;
36715;SDS011;22699;51.034;3.730;2023-07-13T06:59:39;12.55;;;3.55;;
36715;SDS011;22699;51.034;3.730;2023-07-13T07:02:06;15.30;;;3.97;;
36715;SDS011;22699;51.034;3.730;2023-07-13T07:04:33;13.57;;;3.70;;
36715;SDS011;22699;51.034;3.730;2023-07-13T07:06:59;16.63;;;3.83;;
36715;SDS011;22699;51.034;3.730;2023-07-13T07:09:25;16.75;;;4.60;;
36715;SDS011;22699;51.034;3.730;2023-07-13T07:11:50;13.90;;;4.20;;
36715;SDS011;22699;51.034;3.730;2023-07-13T07:14:16;17.25;;;4.30;;
36715;SDS011;22699;51.034;3.730;2023-07-13T07:16:43;13.00;;;3.72;;
36715;SDS011;22699;51.034;3.730;2023-07-13T07:19:09;17.45;;;4.05;;
36715;SDS011;22699;51.034;3.730;2023-07-13T07:21:34;16.00;;;3.67;;
36715;SDS011;22699;51.034;3.730;2023-07-13T07:24:00;12.55;;;3.40;;
36715;SDS011;22699;51.034;3.730;2023-07-13T07:26:26;14.25;;;3.70;;
36715;SDS011;22699;51.034;3.730;2023-07-13T07:28:51;12.80;;;3.65;;
36715;SDS011;22699;51.034;3.730;2023-07-13T07:31:17;10.90;;;3.22;;
36715;SDS011;22699;51.034;3.730;2023-07-13T07:33:43;14.88;;;3.10;;
36715;SDS011;22699;51.034;3.730;2023-07-13T07:36:10;10.20;;;3.30;;
36715;SDS011;22699;51.034;3.730;2023-07-13T07:38:38;10.52;;;2.92;;
36715;SDS011;22699;51.034;3.730;2023-07-13T07:41:04;9.80;;;2.55;;
36715;SDS011;22699;51.034;3.730;2023-07-13T07:43:31;7.97;;;2.72;;
36715;SDS011;22699;51.034;3.730;2023-07-13T07:45:57;9.32;;;2.63;;
36715;SDS011;22699;51.034;3.730;2023-07-13T07:48:23;8.75;;;2.05;;
36715;SDS011;22699;51.034;3.730;2023-07-13T07:50:48;8.70;;;2.20;;
36715;SDS011;22699;51.034;3.730;2023-07-13T07:53:14;9.45;;;2.10;;
36715;SDS011;22699;51.034;3.730;2023-07-13T07:55:40;7.90;;;1.85;;
36715;SDS011;22699;51.034;3.730;2023-07-13T07:58:06;10.60;;;2.38;;
36715;SDS011;22699;51.034;3.730;2023-07-13T08:00:32;6.10;;;2.25;;
36715;SDS011;22699;51.034;3.730;2023-07-13T08:02:58;6.55;;;2.13;;
36715;SDS011;22699;51.034;3.730;2023-07-13T08:05:24;9.95;;;2.85;;
36715;SDS011;22699;51.034;3.730;2023-07-13T08:07:52;7.78;;;2.70;;
36715;SDS011;22699;51.034;3.730;2023-07-13T08:10:17;6.00;;;1.88;;
36715;SDS011;22699;51.034;3.730;2023-07-13T08:12:43;7.97;;;2.28;;
36715;SDS011;22699;51.034;3.730;2023-07-13T08:15:10;6.28;;;2.08;;
36715;SDS011;22699;51.034;3.730;2023-07-13T08:17:39;8.02;;;1.98;;
36715;SDS011;22699;51.034;3.730;2023-07-13T08:20:06;8.25;;;2.60;;
36715;SDS011;22699;51.034;3.730;2023-07-13T08:22:32;6.57;;;2.22;;
36715;SDS011;22699;51.034;3.730;2023-07-13T08:24:58;8.27;;;2.63;;
36715;SDS011;22699;51.034;3.730;2023-07-13T08:27:24;16.42;;;2.90;;
36715;SDS011;22699;51.034;3.730;2023-07-13T08:29:52;9.73;;;2.17;;
36715;SDS011;22699;51.034;3.730;2023-07-13T08:32:19;6.40;;;2.13;;
36715;SDS011;22699;51.034;3.730;2023-07-13T08:34:46;7.93;;;2.22;;
36715;SDS011;22699;51.034;3.730;2023-07-13T08:37:12;10.52;;;2.40;;
36715;SDS011;22699;51.034;3.730;2023-07-13T08:39:38;14.75;;;3.35;;
36715;SDS011;22699;51.034;3.730;2023-07-13T08:42:46;10.10;;;2.97;;
36715;SDS011;22699;51.034;3.730;2023-07-13T08:47:37;9.00;;;3.10;;
36715;SDS011;22699;51.034;3.730;2023-07-13T08:50:12;12.18;;;3.08;;
36715;SDS011;22699;51.034;3.730;2023-07-13T08:52:42;11.43;;;4.00;;
36715;SDS011;22699;51.034;3.730;2023-07-13T08:55:13;11.45;;;2.50;;
36715;SDS011;22699;51.034;3.730;2023-07-13T08:57:46;7.38;;;2.30;;
36715;SDS011;22699;51.034;3.730;2023-07-13T09:00:18;7.18;;;2.30;;
36715;SDS011;22699;51.034;3.730;2023-07-13T09:05:25;6.50;;;1.85;;
36715;SDS011;22699;51.034;3.730;2023-07-13T09:16:42;6.32;;;1.55;;
36715;SDS011;22699;51.034;3.730;2023-07-13T09:19:11;5.40;;;1.60;;
36715;SDS011;22699;51.034;3.730;2023-07-13T09:21:44;6.70;;;1.73;;
36715;SDS011;22699;51.034;3.730;2023-07-13T09:26:45;6.20;;;1.52;;
36715;SDS011;22699;51.034;3.730;2023-07-13T09:29:12;8.10;;;1.52;;
36715;SDS011;22699;51.034;3.730;2023-07-13T09:31:53;7.38;;;1.80;;
36715;SDS011;22699;51.034;3.730;2023-07-13T09:34:20;9.38;;;1.85;;
36715;SDS011;22699;51.034;3.730;2023-07-13T09:36:46;8.32;;;2.05;;
36715;SDS011;22699;51.034;3.730;2023-07-13T09:39:14;5.20;;;1.92;;
36715;SDS011;22699;51.034;3.730;2023-07-13T09:45:05;6.03;;;2.20;;
36715;SDS011;22699;51.034;3.730;2023-07-13T09:47:38;7.38;;;1.83;;
36715;SDS011;22699;51.034;3.730;2023-07-13T09:50:14;8.52;;;1.77;;
36715;SDS011;22699;51.034;3.730;2023-07-13T09:52:47;7.38;;;2.25;;
36715;SDS011;22699;51.034;3.730;2023-07-13T09:55:36;5.65;;;1.55;;
36715;SDS011;22699;51.034;3.730;2023-07-13T09:58:13;3.40;;;1.40;;
36715;SDS011;22699;51.034;3.730;2023-07-13T10:00:53;8.52;;;2.15;;
36715;SDS011;22699;51.034;3.730;2023-07-13T10:05:57;5.97;;;1.70;;
36715;SDS011;22699;51.034;3.730;2023-07-13T10:08:30;6.75;;;1.50;;
36715;SDS011;22699;51.034;3.730;2023-07-13T10:10:58;6.00;;;1.48;;
36715;SDS011;22699;51.034;3.730;2023-07-13T10:16:00;7.40;;;1.88;;
36715;SDS011;22699;51.034;3.730;2023-07-13T10:18:27;7.63;;;1.70;;
36715;SDS011;22699;51.034;3.730;2023-07-13T10:21:00;5.88;;;1.70;;
36715;SDS011;22699;51.034;3.730;2023-07-13T10:23:41;5.70;;;1.85;;
36715;SDS011;22699;51.034;3.730;2023-07-13T10:26:10;8.05;;;1.98;;
36715;SDS011;22699;51.034;3.730;2023-07-13T10:28:41;6.22;;;1.75;;
36715;SDS011;22699;51.034;3.730;2023-07-13T10:31:13;7.47;;;1.85;;
36715;SDS011;22699;51.034;3.730;2023-07-13T10:33:40;9.52;;;1.98;;
36715;SDS011;22699;51.034;3.730;2023-07-13T10:36:12;5.22;;;1.70;;
36715;SDS011;22699;51.034;3.730;2023-07-13T10:38:43;6.55;;;1.77;;
36715;SDS011;22699;51.034;3.730;2023-07-13T10:41:12;7.83;;;1.63;;
36715;SDS011;22699;51.034;3.730;2023-07-13T10:43:46;7.20;;;1.95;;
36715;SDS011;22699;51.034;3.730;2023-07-13T10:46:22;7.07;;;2.15;;
36715;SDS011;22699;51.034;3.730;2023-07-13T10:48:57;5.43;;;1.75;;
36715;SDS011;22699;51.034;3.730;2023-07-13T10:51:26;7.13;;;2.47;;
36715;SDS011;22699;51.034;3.730;2023-07-13T11:02:42;5.00;;;2.40;;
36715;SDS011;22699;51.034;3.730;2023-07-13T11:05:43;8.95;;;4.13;;
36715;SDS011;22699;51.034;3.730;2023-07-13T11:08:51;7.40;;;2.88;;
36715;SDS011;22699;51.034;3.730;2023-07-13T11:10:56;10.13;;;3.40;;
36715;SDS011;22699;51.034;3.730;2023-07-13T11:16:26;9.50;;;2.58;;
36715;SDS011;22699;51.034;3.730;2023-07-13T11:21:30;6.25;;;1.85;;
36715;SDS011;22699;51.034;3.730;2023-07-13T11:24:15;5.68;;;2.05;;
36715;SDS011;22699;51.034;3.730;2023-07-13T11:29:23;5.10;;;1.52;;
36715;SDS011;22699;51.034;3.730;2023-07-13T11:31:56;8.95;;;2.10;;
36715;SDS011;22699;51.034;3.730;2023-07-13T11:34:31;9.43;;;2.03;;
36715;SDS011;22699;51.034;3.730;2023-07-13T11:37:00;5.07;;;2.08;;
36715;SDS011;22699;51.034;3.730;2023-07-13T11:42:05;5.72;;;2.13;;
36715;SDS011;22699;51.034;3.730;2023-07-13T11:44:34;6.18;;;1.85;;
36715;SDS011;22699;51.034;3.730;2023-07-13T11:47:07;8.07;;;1.70;;
36715;SDS011;22699;51.034;3.730;2023-07-13T11:49:40;6.07;;;1.80;;
36715;SDS011;22699;51.034;3.730;2023-07-13T11:52:16;5.55;;;2.08;;
36715;SDS011;22699;51.034;3.730;2023-07-13T11:54:47;5.40;;;2.10;;
36715;SDS011;22699;51.034;3.730;2023-07-13T12:02:30;4.40;;;2.13;;
36715;SDS011;22699;51.034;3.730;2023-07-13T12:04:59;7.25;;;2.40;;
36715;SDS011;22699;51.034;3.730;2023-07-13T12:07:29;5.45;;;2.15;;
36715;SDS011;22699;51.034;3.730;2023-07-13T12:10:01;4.68;;;2.53;;
36715;SDS011;22699;51.034;3.730;2023-07-13T12:12:36;6.20;;;2.40;;
36715;SDS011;22699;51.034;3.730;2023-07-13T12:15:08;4.28;;;2.10;;
36715;SDS011;22699;51.034;3.730;2023-07-13T12:17:37;4.97;;;2.70;;
36715;SDS011;22699;51.034;3.730;2023-07-13T12:20:04;12.40;;;3.03;;
36715;SDS011;22699;51.034;3.730;2023-07-13T12:22:48;5.60;;;2.60;;
36715;SDS011;22699;51.034;3.730;2023-07-13T12:25:15;5.85;;;2.67;;
36715;SDS011;22699;51.034;3.730;2023-07-13T12:27:42;9.23;;;3.17;;
36715;SDS011;22699;51.034;3.730;2023-07-13T12:30:30;7.43;;;2.42;;
36715;SDS011;22699;51.034;3.730;2023-07-13T12:33:02;6.20;;;2.33;;
36715;SDS011;22699;51.034;3.730;2023-07-13T12:35:39;6.57;;;2.17;;
36715;SDS011;22699;51.034;3.730;2023-07-13T12:38:10;5.97;;;2.30;;
36715;SDS011;22699;51.034;3.730;2023-07-13T12:40:37;8.63;;;2.90;;
36715;SDS011;22699;51.034;3.730;2023-07-13T12:43:03;7.43;;;2.70;;
36715;SDS011;22699;51.034;3.730;2023-07-13T12:45:33;8.50;;;3.08;;
36715;SDS011;22699;51.034;3.730;2023-07-13T12:48:12;5.05;;;2.17;;
36715;SDS011;22699;51.034;3.730;2023-07-13T12:53:31;6.18;;;3.67;;
36715;SDS011;22699;51.034;3.730;2023-07-13T12:55:59;6.28;;;2.17;;
36715;SDS011;22699;51.034;3.730;2023-07-13T12:58:30;6.30;;;2.00;;
36715;SDS011;22699;51.034;3.730;2023-07-13T13:01:01;4.80;;;2.80;;
36715;SDS011;22699;51.034;3.730;2023-07-13T13:03:30;5.82;;;1.90;;
36715;SDS011;22699;51.034;3.730;2023-07-13T13:06:00;4.63;;;1.85;;
36715;SDS011;22699;51.034;3.730;2023-07-13T13:08:48;5.20;;;2.07;;
36715;SDS011;22699;51.034;3.730;2023-07-13T13:11:15;4.93;;;1.85;;
36715;SDS011;22699;51.034;3.730;2023-07-13T13:13:44;3.55;;;1.77;;
36715;SDS011;22699;51.034;3.730;2023-07-13T13:18:48;4.38;;;1.67;;
36715;SDS011;22699;51.034;3.730;2023-07-13T13:21:15;8.63;;;1.45;;
36715;SDS011;22699;51.034;3.730;2023-07-13T13:23:42;3.10;;;1.40;;
36715;SDS011;22699;51.034;3.730;2023-07-13T13:26:10;4.07;;;1.45;;
36715;SDS011;22699;51.034;3.730;2023-07-13T13:28:43;4.22;;;1.30;;
36715;SDS011;22699;51.034;3.730;2023-07-13T13:31:09;3.42;;;1.50;;
36715;SDS011;22699;51.034;3.730;2023-07-13T13:33:40;4.57;;;1.55;;
36715;SDS011;22699;51.034;3.730;2023-07-13T13:36:18;3.60;;;1.60;;
36715;SDS011;22699;51.034;3.730;2023-07-13T13:38:45;3.05;;;1.80;;
36715;SDS011;22699;51.034;3.730;2023-07-13T13:41:13;4.53;;;1.67;;
36715;SDS011;22699;51.034;3.730;2023-07-13T13:43:41;4.45;;;1.52;;
36715;SDS011;22699;51.034;3.730;2023-07-13T13:46:13;3.58;;;1.50;;
36715;SDS011;22699;51.034;3.730;2023-07-13T13:48:41;4.60;;;1.17;;
36715;SDS011;22699;51.034;3.730;2023-07-13T13:53:47;4.95;;;1.30;;
36715;SDS011;22699;51.034;3.730;2023-07-13T14:01:18;1.52;;;0.90;;
36715;SDS011;22699;51.034;3.730;2023-07-13T14:06:17;3.80;;;1.15;;
36715;SDS011;22699;51.034;3.730;2023-07-13T14:08:43;3.17;;;1.27;;
36715;SDS011;22699;51.034;3.730;2023-07-13T14:11:13;3.65;;;1.08;;
36715;SDS011;22699;51.034;3.730;2023-07-13T14:13:43;2.22;;;1.17;;
36715;SDS011;22699;51.034;3.730;2023-07-13T14:16:14;4.28;;;1.45;;
36715;SDS011;22699;51.034;3.730;2023-07-13T14:18:42;3.67;;;1.45;;
36715;SDS011;22699;51.034;3.730;2023-07-13T14:21:17;3.75;;;1.02;;
36715;SDS011;22699;51.034;3.730;2023-07-13T14:23:44;3.15;;;1.08;;
36715;SDS011;22699;51.034;3.730;2023-07-13T14:26:14;3.25;;;1.35;;
36715;SDS011;22699;51.034;3.730;2023-07-13T14:28:42;2.50;;;1.00;;
36715;SDS011;22699;51.034;3.730;2023-07-13T14:31:10;4.03;;;1.45;;
36715;SDS011;22699;51.034;3.730;2023-07-13T14:33:41;2.92;;;1.10;;
36715;SDS011;22699;51.034;3.730;2023-07-13T14:39:13;6.55;;;1.10;;
36715;SDS011;22699;51.034;3.730;2023-07-13T14:41:43;5.88;;;1.30;;
36715;SDS011;22699;51.034;3.730;2023-07-13T14:44:20;3.53;;;2.05;;
36715;SDS011;22699;51.034;3.730;2023-07-13T14:46:49;3.22;;;1.70;;
36715;SDS011;22699;51.034;3.730;2023-07-13T14:52:13;5.35;;;1.40;;
36715;SDS011;22699;51.034;3.730;2023-07-13T14:54:42;3.47;;;1.80;;
36715;SDS011;22699;51.034;3.730;2023-07-13T14:57:26;3.28;;;1.42;;
36715;SDS011;22699;51.034;3.730;2023-07-13T14:59:52;4.05;;;1.40;;
36715;SDS011;22699;51.034;3.730;2023-07-13T15:02:28;2.30;;;1.25;;
36715;SDS011;22699;51.034;3.730;2023-07-13T15:04:57;5.18;;;1.40;;
36715;SDS011;22699;51.034;3.730;2023-07-13T15:07:23;3.72;;;1.25;;
36715;SDS011;22699;51.034;3.730;2023-07-13T15:09:50;3.95;;;3.13;;
36715;SDS011;22699;51.034;3.730;2023-07-13T15:12:16;2.88;;;1.13;;
36715;SDS011;22699;51.034;3.730;2023-07-13T15:14:42;2.42;;;1.35;;
36715;SDS011;22699;51.034;3.730;2023-07-13T15:20:04;4.30;;;1.33;;
36715;SDS011;22699;51.034;3.730;2023-07-13T15:22:39;2.33;;;1.13;;
36715;SDS011;22699;51.034;3.730;2023-07-13T15:25:17;3.47;;;1.13;;
36715;SDS011;22699;51.034;3.730;2023-07-13T15:27:48;3.80;;;1.10;;
36715;SDS011;22699;51.034;3.730;2023-07-13T15:32:46;4.45;;;1.20;;
36715;SDS011;22699;51.034;3.730;2023-07-13T15:35:13;2.95;;;1.42;;
36715;SDS011;22699;51.034;3.730;2023-07-13T15:37:43;3.55;;;1.02;;
36715;SDS011;22699;51.034;3.730;2023-07-13T15:40:12;3.60;;;1.02;;
36715;SDS011;22699;51.034;3.730;2023-07-13T15:42:39;2.67;;;1.17;;
36715;SDS011;22699;51.034;3.730;2023-07-13T15:45:19;4.80;;;1.30;;
36715;SDS011;22699;51.034;3.730;2023-07-13T15:47:47;2.47;;;1.05;;
36715;SDS011;22699;51.034;3.730;2023-07-13T15:50:17;3.35;;;1.30;;
36715;SDS011;22699;51.034;3.730;2023-07-13T15:52:48;2.30;;;1.27;;
36715;SDS011;22699;51.034;3.730;2023-07-13T15:55:16;3.83;;;1.27;;
36715;SDS011;22699;51.034;3.730;2023-07-13T15:57:44;2.70;;;1.10;;
36715;SDS011;22699;51.034;3.730;2023-07-13T16:00:16;3.63;;;1.25;;
36715;SDS011;22699;51.034;3.730;2023-07-13T16:02:51;2.80;;;1.17;;
36715;SDS011;22699;51.034;3.730;2023-07-13T16:05:18;4.13;;;1.55;;
36715;SDS011;22699;51.034;3.730;2023-07-13T16:07:51;3.25;;;1.13;;
36715;SDS011;22699;51.034;3.730;2023-07-13T16:10:29;2.85;;;1.08;;
36715;SDS011;22699;51.034;3.730;2023-07-13T16:13:05;3.28;;;1.20;;
36715;SDS011;22699;51.034;3.730;2023-07-13T16:15:35;5.10;;;1.48;;
36715;SDS011;22699;51.034;3.730;2023-07-13T16:18:04;2.72;;;1.17;;
36715;SDS011;22699;51.034;3.730;2023-07-13T16:20:31;4.78;;;1.20;;
36715;SDS011;22699;51.034;3.730;2023-07-13T16:22:57;2.17;;;1.10;;
36715;SDS011;22699;51.034;3.730;2023-07-13T16:25:26;3.28;;;1.30;;
36715;SDS011;22699;51.034;3.730;2023-07-13T16:27:57;4.45;;;1.13;;